Time;durP1;ratioP1;P1;durP2;ratioP2;P2;SDS_P1;SDS_P2;PMS_P1;PMS_P2;Temp;Humidity;BMP_temperature;BMP_pressure;BME280_temperature;BME280_humidity;BME280_pressure;Samples;Min_cycle;Max_cycle;Signal;HPM_P1;HPM_P2
2022/07/31 00:02:01;;;;;;;4.50;2.72;;;19.80;97.10;;;;;;4844898;29;20140;-84
2022/07/31 00:04:27;;;;;;;5.45;2.72;;;19.80;97.00;;;;;;4853785;29;20045;-83
2022/07/31 00:06:53;;;;;;;3.40;2.55;;;19.80;97.00;;;;;;4859941;29;20046;-83
2022/07/31 00:09:18;;;;;;;3.97;2.55;;;19.80;97.20;;;;;;4837278;29;20483;-83
2022/07/31 00:11:45;;;;;;;3.70;2.50;;;19.70;97.30;;;;;;4842651;29;20466;-83
2022/07/31 00:14:11;;;;;;;3.58;2.67;;;19.80;97.40;;;;;;4845886;29;20444;-82
2022/07/31 00:16:37;;;;;;;5.45;2.95;;;19.70;97.40;;;;;;4857840;29;20139;-84
2022/07/31 00:19:03;;;;;;;6.53;3.13;;;19.70;97.40;;;;;;4842049;29;20128;-83
2022/07/31 00:21:28;;;;;;;5.07;2.97;;;19.70;97.50;;;;;;4863429;29;20582;-83
2022/07/31 00:23:54;;;;;;;4.35;3.15;;;19.70;97.50;;;;;;4845275;29;20037;-83
2022/07/31 00:26:20;;;;;;;5.75;3.47;;;19.70;97.50;;;;;;4853745;29;20054;-83
2022/07/31 00:28:46;;;;;;;4.97;3.20;;;19.70;97.60;;;;;;4860000;29;20125;-82
2022/07/31 00:31:12;;;;;;;5.22;3.28;;;19.60;97.60;;;;;;4871096;29;20050;-83
2022/07/31 00:33:38;;;;;;;5.60;3.22;;;19.60;97.70;;;;;;4857735;29;20049;-83
2022/07/31 00:36:04;;;;;;;6.22;3.40;;;19.60;97.90;;;;;;4860386;29;20064;-82
2022/07/31 00:38:29;;;;;;;5.95;3.15;;;19.50;97.90;;;;;;4853830;29;20167;-82
2022/07/31 00:40:55;;;;;;;4.90;3.03;;;19.50;97.90;;;;;;4849809;29;20080;-85
2022/07/31 00:43:21;;;;;;;6.20;3.63;;;19.50;97.90;;;;;;4842258;29;20073;-83
2022/07/31 00:45:48;;;;;;;6.18;3.30;;;19.50;97.90;;;;;;4860124;29;20439;-84
2022/07/31 00:48:13;;;;;;;4.75;3.70;;;19.50;97.90;;;;;;4857793;29;20053;-83
2022/07/31 00:50:39;;;;;;;5.30;3.50;;;19.50;97.90;;;;;;4858811;29;20056;-84
2022/07/31 00:53:05;;;;;;;5.30;3.25;;;19.50;97.90;;;;;;4826467;29;20093;-84
2022/07/31 00:55:31;;;;;;;5.90;3.05;;;19.50;98.00;;;;;;4860169;29;20049;-83
2022/07/31 00:57:57;;;;;;;3.53;2.90;;;19.50;98.10;;;;;;4855526;29;20053;-83
2022/07/31 01:00:22;;;;;;;3.80;3.05;;;19.50;98.20;;;;;;4858643;29;20076;-83
2022/07/31 01:02:48;;;;;;;4.40;3.00;;;19.50;98.20;;;;;;4869177;29;20136;-76
2022/07/31 01:05:17;;;;;;;3.25;2.70;;;19.50;98.20;;;;;;4854274;29;20094;-82
2022/07/31 01:07:44;;;;;;;3.70;2.50;;;19.50;98.20;;;;;;4873525;29;20045;-82
2022/07/31 01:10:15;;;;;;;6.57;3.30;;;19.50;98.20;;;;;;4841694;29;20050;-83
2022/07/31 01:12:51;;;;;;;4.40;3.28;;;19.50;98.20;;;;;;4857266;29;20049;-83
2022/07/31 01:15:19;;;;;;;4.70;2.80;;;19.50;98.20;;;;;;4848600;29;20053;-83
2022/07/31 01:17:47;;;;;;;4.20;3.05;;;19.50;98.20;;;;;;4852166;29;20044;-83
2022/07/31 01:20:13;;;;;;;5.80;2.85;;;19.50;98.30;;;;;;4848623;29;20073;-82
2022/07/31 01:23:09;;;;;;;4.63;2.90;;;19.40;98.30;;;;;;4858220;29;20121;-83
2022/07/31 01:26:12;;;;;;;4.00;2.78;;;19.50;98.30;;;;;;4856516;29;20041;-82
2022/07/31 01:28:43;;;;;;;7.60;3.03;;;19.40;98.40;;;;;;4845691;29;20049;-83
2022/07/31 01:31:14;;;;;;;4.22;2.95;;;19.40;98.60;;;;;;4855077;29;20160;-82
2022/07/31 01:33:50;;;;;;;3.92;2.78;;;19.40;98.60;;;;;;4848742;29;20049;-82
2022/07/31 01:36:21;;;;;;;3.08;2.80;;;19.40;98.80;;;;;;4854589;29;20058;-83
2022/07/31 01:38:50;;;;;;;5.78;3.20;;;19.40;98.90;;;;;;4860165;29;20069;-82
2022/07/31 01:41:20;;;;;;;5.15;2.97;;;19.40;98.80;;;;;;4860585;29;20082;-83
2022/07/31 01:43:51;;;;;;;5.03;2.90;;;19.40;98.70;;;;;;4847182;29;20074;-83
2022/07/31 01:46:19;;;;;;;3.17;2.75;;;19.30;98.80;;;;;;4860304;29;20060;-83
2022/07/31 01:48:47;;;;;;;4.63;3.00;;;19.30;99.20;;;;;;4842648;29;20081;-82
2022/07/31 01:51:14;;;;;;;5.97;3.60;;;19.30;98.90;;;;;;4863259;29;20053;-82
2022/07/31 01:53:44;;;;;;;7.55;3.10;;;19.30;99.10;;;;;;4846418;29;20045;-82
2022/07/31 01:56:10;;;;;;;4.78;3.30;;;19.20;99.20;;;;;;4862060;29;20105;-83
2022/07/31 01:58:39;;;;;;;6.65;3.13;;;19.20;99.30;;;;;;4851042;29;20132;-83
2022/07/31 02:01:10;;;;;;;4.18;3.38;;;19.20;99.40;;;;;;4860047;29;20057;-82
2022/07/31 02:03:37;;;;;;;6.35;3.50;;;19.20;99.50;;;;;;4848465;29;20505;-84
2022/07/31 02:06:03;;;;;;;5.15;3.15;;;19.20;99.50;;;;;;4862281;29;20049;-83
2022/07/31 02:08:30;;;;;;;5.38;3.20;;;19.20;99.50;;;;;;4859882;29;20403;-83
2022/07/31 02:10:58;;;;;;;6.22;3.53;;;19.20;99.50;;;;;;4844617;29;20050;-83
2022/07/31 02:13:26;;;;;;;8.60;2.95;;;19.20;99.60;;;;;;4847309;29;20041;-83
2022/07/31 02:15:54;;;;;;;5.38;3.10;;;19.20;99.90;;;;;;4873143;29;20108;-83
2022/07/31 02:18:22;;;;;;;4.28;2.88;;;19.10;99.90;;;;;;4847159;29;20402;-83
2022/07/31 02:20:49;;;;;;;5.28;3.38;;;19.10;99.90;;;;;;4859010;29;20533;-83
2022/07/31 02:23:16;;;;;;;5.90;3.47;;;19.10;99.90;;;;;;4847470;29;20050;-84
2022/07/31 02:25:43;;;;;;;4.55;3.55;;;19.10;99.90;;;;;;4846832;29;20049;-84
2022/07/31 02:28:12;;;;;;;3.35;3.03;;;19.10;99.90;;;;;;4878166;29;20104;-84
2022/07/31 02:30:41;;;;;;;4.80;2.90;;;19.10;99.90;;;;;;4877473;29;20045;-83
2022/07/31 02:33:17;;;;;;;5.28;3.42;;;19.00;99.90;;;;;;4860385;29;20064;-83
2022/07/31 02:35:46;;;;;;;5.50;3.55;;;19.10;99.90;;;;;;4857806;29;20042;-84
2022/07/31 02:38:15;;;;;;;5.05;3.28;;;19.00;99.90;;;;;;4853670;29;20073;-84
2022/07/31 02:40:41;;;;;;;4.20;3.65;;;19.00;99.90;;;;;;4838965;29;20112;-84
2022/07/31 02:43:10;;;;;;;5.28;3.60;;;19.00;99.90;;;;;;4846742;29;20041;-84
2022/07/31 02:45:36;;;;;;;5.38;3.65;;;19.00;99.90;;;;;;4846977;29;20044;-83
2022/07/31 02:48:03;;;;;;;3.78;3.30;;;19.00;99.90;;;;;;4848322;29;20053;-83
2022/07/31 02:50:29;;;;;;;4.38;3.20;;;19.00;99.90;;;;;;4844035;29;20048;-84
2022/07/31 02:52:55;;;;;;;4.40;3.40;;;19.00;99.90;;;;;;4847591;29;20415;-83
2022/07/31 02:55:21;;;;;;;4.65;3.53;;;19.00;99.90;;;;;;4854512;29;20054;-83
2022/07/31 02:57:47;;;;;;;5.88;3.38;;;19.00;99.90;;;;;;4848190;29;20056;-83
2022/07/31 03:00:21;;;;;;;7.38;3.83;;;19.00;99.90;;;;;;4877593;29;20507;-84
2022/07/31 03:02:49;;;;;;;4.45;3.20;;;18.90;99.90;;;;;;4843659;29;20045;-84
2022/07/31 03:05:15;;;;;;;4.72;4.20;;;18.90;99.90;;;;;;4849698;29;20150;-83
2022/07/31 03:07:41;;;;;;;3.83;3.40;;;18.90;99.90;;;;;;4846248;29;20050;-84
2022/07/31 03:10:09;;;;;;;4.22;3.33;;;18.90;99.90;;;;;;4847149;29;20060;-85
2022/07/31 03:12:40;;;;;;;5.55;3.75;;;18.90;99.90;;;;;;4846557;29;20045;-83
2022/07/31 03:15:12;;;;;;;7.45;4.50;;;18.80;99.90;;;;;;4843684;29;20391;-83
2022/07/31 03:17:39;;;;;;;4.68;3.65;;;18.90;99.90;;;;;;4857145;29;20049;-82
2022/07/31 03:20:07;;;;;;;4.53;3.92;;;18.80;99.90;;;;;;4841130;29;20038;-85
2022/07/31 03:22:33;;;;;;;4.95;4.18;;;18.80;99.90;;;;;;4853346;29;20038;-83
2022/07/31 03:25:00;;;;;;;5.00;4.28;;;18.80;99.90;;;;;;4861173;29;20045;-84
2022/07/31 03:27:26;;;;;;;6.63;4.13;;;18.80;99.90;;;;;;4861490;29;20051;-83
2022/07/31 03:29:53;;;;;;;5.72;4.10;;;18.80;99.90;;;;;;4850578;29;20457;-83
2022/07/31 03:32:19;;;;;;;5.72;4.03;;;18.80;99.90;;;;;;4855939;29;20049;-84
2022/07/31 03:34:45;;;;;;;5.70;4.35;;;18.80;99.90;;;;;;4850202;29;20034;-83
2022/07/31 03:37:11;;;;;;;8.43;4.20;;;18.80;99.90;;;;;;4838647;29;20456;-83
2022/07/31 03:39:37;;;;;;;4.93;4.07;;;18.70;99.90;;;;;;4857074;29;20410;-83
2022/07/31 03:42:03;;;;;;;5.93;4.00;;;18.70;99.90;;;;;;4845368;29;20042;-83
2022/07/31 03:44:31;;;;;;;6.50;4.00;;;18.70;99.90;;;;;;4852964;29;20053;-83
2022/07/31 03:46:58;;;;;;;6.10;4.07;;;18.70;99.90;;;;;;4845905;29;20101;-83
2022/07/31 03:49:24;;;;;;;5.15;4.28;;;18.70;99.90;;;;;;4851141;29;20057;-83
2022/07/31 03:51:50;;;;;;;4.55;4.10;;;18.70;99.90;;;;;;4832445;29;20052;-82
2022/07/31 03:54:16;;;;;;;4.95;4.47;;;18.70;99.90;;;;;;4859784;29;20128;-83
2022/07/31 03:56:46;;;;;;;7.78;4.68;;;18.70;99.90;;;;;;4845221;29;20042;-83
2022/07/31 03:59:15;;;;;;;10.55;4.93;;;18.70;99.90;;;;;;4853132;29;20052;-82
2022/07/31 04:01:45;;;;;;;8.55;4.65;;;18.60;99.90;;;;;;4870892;29;20079;-83
2022/07/31 04:04:12;;;;;;;6.82;4.90;;;18.70;99.90;;;;;;4854994;29;20133;-84
2022/07/31 04:06:39;;;;;;;8.52;5.38;;;18.60;99.90;;;;;;4851699;29;20116;-84
2022/07/31 04:09:05;;;;;;;7.63;5.00;;;18.60;99.90;;;;;;4860693;29;20120;-84
2022/07/31 04:11:31;;;;;;;6.75;4.63;;;18.50;99.90;;;;;;4856336;29;20109;-83
2022/07/31 04:13:57;;;;;;;6.13;4.90;;;18.50;99.90;;;;;;4854193;29;20045;-83
2022/07/31 04:16:23;;;;;;;6.97;5.25;;;18.50;99.90;;;;;;4841634;29;21238;-83
2022/07/31 04:18:49;;;;;;;9.15;5.55;;;18.50;99.90;;;;;;4860624;29;20093;-84
2022/07/31 04:21:14;;;;;;;8.27;5.70;;;18.50;99.90;;;;;;4842483;29;20045;-83
2022/07/31 04:23:41;;;;;;;9.57;5.45;;;18.50;99.90;;;;;;4845537;29;20056;-83
2022/07/31 04:26:06;;;;;;;6.43;5.50;;;18.50;99.90;;;;;;4830730;29;20128;-83
2022/07/31 04:28:32;;;;;;;8.80;5.15;;;18.40;99.90;;;;;;4856850;29;20079;-83
2022/07/31 04:30:58;;;;;;;10.85;5.00;;;18.40;99.90;;;;;;4859514;29;20046;-84
2022/07/31 04:33:24;;;;;;;6.97;5.22;;;18.40;99.90;;;;;;4849797;29;20169;-83
2022/07/31 04:35:51;;;;;;;6.07;4.70;;;18.40;99.90;;;;;;4847191;29;20056;-84
2022/07/31 04:38:17;;;;;;;6.43;5.35;;;18.40;99.90;;;;;;4848299;29;20073;-83
2022/07/31 04:40:43;;;;;;;9.57;5.30;;;18.50;99.90;;;;;;4859822;29;20042;-83
2022/07/31 04:43:08;;;;;;;7.63;5.22;;;18.50;99.90;;;;;;4845668;29;20505;-83
2022/07/31 04:45:34;;;;;;;6.10;5.10;;;18.50;99.90;;;;;;4852918;29;20049;-82
2022/07/31 04:48:00;;;;;;;9.55;5.03;;;18.50;99.90;;;;;;4847737;29;20050;-82
2022/07/31 04:50:26;;;;;;;5.95;4.75;;;18.50;99.90;;;;;;4858213;29;20049;-83
2022/07/31 04:52:52;;;;;;;6.47;5.05;;;18.50;99.90;;;;;;4817281;29;20060;-83
2022/07/31 04:55:17;;;;;;;7.78;5.32;;;18.50;99.90;;;;;;4855945;29;20049;-84
2022/07/31 04:57:43;;;;;;;10.00;5.60;;;18.60;99.90;;;;;;4834614;29;20440;-84
2022/07/31 05:00:10;;;;;;;6.38;4.65;;;18.50;99.90;;;;;;4853040;29;20046;-83
2022/07/31 05:02:36;;;;;;;6.55;4.60;;;18.50;99.90;;;;;;4846270;29;20051;-84
2022/07/31 05:05:03;;;;;;;6.90;5.40;;;18.50;99.90;;;;;;4851696;29;20066;-83
2022/07/31 05:07:28;;;;;;;7.85;5.03;;;18.50;99.90;;;;;;4873139;29;20045;-84
2022/07/31 05:09:55;;;;;;;8.60;4.90;;;18.60;99.90;;;;;;4861243;29;20046;-84
2022/07/31 05:12:21;;;;;;;5.50;4.82;;;18.60;99.90;;;;;;4861247;29;20105;-84
2022/07/31 05:14:47;;;;;;;6.82;4.63;;;18.60;99.90;;;;;;4860064;29;20041;-83
2022/07/31 05:17:13;;;;;;;6.68;4.70;;;18.60;99.90;;;;;;4831557;29;20045;-83
2022/07/31 05:19:39;;;;;;;5.38;4.78;;;18.70;99.90;;;;;;4853949;29;20038;-83
2022/07/31 05:22:05;;;;;;;6.25;4.82;;;18.70;99.90;;;;;;4861822;29;20120;-82
2022/07/31 05:24:30;;;;;;;8.07;5.20;;;18.70;99.90;;;;;;4845676;29;20042;-82
2022/07/31 05:26:56;;;;;;;9.55;5.13;;;18.70;99.90;;;;;;4830884;29;20073;-83
2022/07/31 05:29:22;;;;;;;7.18;4.97;;;18.80;99.90;;;;;;4817874;29;20546;-82
2022/07/31 05:31:55;;;;;;;6.95;4.75;;;18.80;99.90;;;;;;4848581;29;20061;-82
2022/07/31 05:34:20;;;;;;;6.70;5.22;;;18.80;99.90;;;;;;4836387;29;20307;-83
2022/07/31 05:36:46;;;;;;;7.88;5.47;;;18.90;99.90;;;;;;4862499;29;20038;-83
2022/07/31 05:39:12;;;;;;;8.82;5.15;;;18.90;99.90;;;;;;4859804;29;20129;-83
2022/07/31 05:41:38;;;;;;;6.43;4.93;;;18.90;99.90;;;;;;4813538;29;20061;-84
2022/07/31 05:44:04;;;;;;;9.32;5.43;;;18.90;99.90;;;;;;4850728;29;20041;-83
2022/07/31 05:46:30;;;;;;;7.22;4.50;;;18.90;99.90;;;;;;4853222;29;20443;-83
2022/07/31 05:48:55;;;;;;;7.38;4.70;;;19.00;99.90;;;;;;4855461;29;20046;-83
2022/07/31 05:51:21;;;;;;;7.38;4.70;;;19.00;99.90;;;;;;4853932;29;20053;-83
2022/07/31 05:53:47;;;;;;;6.65;4.78;;;19.00;99.90;;;;;;4844319;29;20049;-83
2022/07/31 05:56:13;;;;;;;5.35;4.65;;;19.10;99.90;;;;;;4844466;29;20117;-82
2022/07/31 05:58:38;;;;;;;7.75;5.50;;;19.10;99.90;;;;;;4856560;29;20056;-83
2022/07/31 06:01:05;;;;;;;5.90;5.20;;;19.10;99.90;;;;;;4855728;29;20041;-83
2022/07/31 06:03:34;;;;;;;6.30;4.90;;;19.20;99.90;;;;;;4854611;29;20050;-83
2022/07/31 06:06:01;;;;;;;7.30;5.07;;;19.20;99.90;;;;;;4836138;29;20487;-83
2022/07/31 06:08:27;;;;;;;14.63;4.85;;;19.20;99.90;;;;;;4856904;29;20411;-83
2022/07/31 06:10:54;;;;;;;8.18;4.60;;;19.30;99.90;;;;;;4865809;29;20050;-83
2022/07/31 06:13:24;;;;;;;5.63;5.10;;;19.30;99.90;;;;;;4833100;29;20493;-83
2022/07/31 06:15:50;;;;;;;6.28;4.68;;;19.30;99.90;;;;;;4826624;29;20163;-83
2022/07/31 06:18:15;;;;;;;6.05;4.90;;;19.30;99.90;;;;;;4861141;29;20038;-82
2022/07/31 06:20:41;;;;;;;6.47;4.75;;;19.40;99.90;;;;;;4855258;29;20045;-83
2022/07/31 06:23:07;;;;;;;7.28;4.88;;;19.40;99.90;;;;;;4843774;29;20048;-83
2022/07/31 06:25:33;;;;;;;7.82;4.80;;;19.50;99.90;;;;;;4851082;29;20041;-83
2022/07/31 06:27:59;;;;;;;7.70;5.07;;;19.50;99.90;;;;;;4877285;29;20033;-84
2022/07/31 06:30:24;;;;;;;5.78;5.03;;;19.60;99.90;;;;;;4857259;29;20058;-84
2022/07/31 06:32:50;;;;;;;6.10;5.50;;;19.70;99.90;;;;;;4846933;29;20102;-84
2022/07/31 06:35:16;;;;;;;7.55;5.75;;;19.80;99.90;;;;;;4839884;29;20118;-84
2022/07/31 06:37:42;;;;;;;7.57;6.57;;;19.90;99.90;;;;;;4844870;29;20117;-84
2022/07/31 06:40:08;;;;;;;10.65;6.97;;;20.00;99.90;;;;;;4841177;29;20061;-84
2022/07/31 06:42:34;;;;;;;8.55;6.38;;;20.00;99.90;;;;;;4856969;29;20038;-84
2022/07/31 06:44:59;;;;;;;8.60;6.07;;;20.00;99.90;;;;;;4878224;29;20049;-84
2022/07/31 06:47:25;;;;;;;8.85;6.47;;;20.10;99.90;;;;;;4858818;29;20407;-84
2022/07/31 06:49:52;;;;;;;8.77;6.80;;;20.10;99.90;;;;;;4852533;29;20045;-84
2022/07/31 06:52:18;;;;;;;8.27;6.82;;;20.10;99.90;;;;;;4855407;29;20045;-84
2022/07/31 06:54:44;;;;;;;9.18;7.05;;;20.20;99.90;;;;;;4837511;29;20475;-84
2022/07/31 06:57:13;;;;;;;9.23;6.53;;;20.20;99.90;;;;;;4858874;29;20094;-84
2022/07/31 06:59:39;;;;;;;6.88;6.00;;;20.20;99.90;;;;;;4861863;29;20137;-84
2022/07/31 07:02:04;;;;;;;8.63;6.43;;;20.20;99.90;;;;;;4874550;29;20073;-84
2022/07/31 07:04:30;;;;;;;7.25;6.47;;;20.20;99.90;;;;;;4854570;29;20470;-83
2022/07/31 07:06:56;;;;;;;10.30;6.88;;;20.20;99.90;;;;;;4856494;29;20060;-84
2022/07/31 07:09:22;;;;;;;9.23;6.78;;;20.20;99.90;;;;;;4861944;29;20045;-83
2022/07/31 07:11:47;;;;;;;11.35;6.70;;;20.30;99.90;;;;;;4843842;29;20056;-84
2022/07/31 07:14:15;;;;;;;9.77;6.68;;;20.30;99.90;;;;;;4838033;29;20101;-84
2022/07/31 07:16:40;;;;;;;8.40;6.65;;;20.30;99.90;;;;;;4855556;29;20054;-84
2022/07/31 07:19:06;;;;;;;10.45;6.65;;;20.30;99.90;;;;;;4876387;29;20104;-84
2022/07/31 07:21:31;;;;;;;11.85;7.28;;;20.30;99.90;;;;;;4845011;29;20042;-83
2022/07/31 07:23:57;;;;;;;7.85;7.03;;;20.40;99.90;;;;;;4856538;29;20037;-84
2022/07/31 07:26:23;;;;;;;14.32;7.00;;;20.40;99.90;;;;;;4851347;29;20037;-84
2022/07/31 07:28:49;;;;;;;9.25;7.20;;;20.40;99.90;;;;;;4820873;29;20053;-87
2022/07/31 07:31:15;;;;;;;8.63;6.72;;;20.40;99.90;;;;;;4860589;29;20414;-87
2022/07/31 07:33:40;;;;;;;9.73;6.97;;;20.40;99.90;;;;;;4859576;29;20049;-85
2022/07/31 07:36:06;;;;;;;8.60;6.45;;;20.50;99.90;;;;;;4856413;29;20049;-84
2022/07/31 07:38:32;;;;;;;9.60;6.60;;;20.50;99.90;;;;;;4845099;29;20061;-85
2022/07/31 07:40:57;;;;;;;9.30;6.22;;;20.60;99.90;;;;;;4845137;29;20058;-84
2022/07/31 07:43:23;;;;;;;9.38;5.85;;;20.60;99.90;;;;;;4859814;29;20048;-83
2022/07/31 07:45:49;;;;;;;7.57;6.25;;;20.70;99.90;;;;;;4842268;29;20042;-84
2022/07/31 07:48:14;;;;;;;8.15;5.90;;;20.70;99.90;;;;;;4859745;29;20407;-85
2022/07/31 07:50:40;;;;;;;7.70;5.55;;;20.70;99.90;;;;;;4845184;29;20037;-83
2022/07/31 07:53:07;;;;;;;6.85;5.35;;;20.70;99.90;;;;;;4859661;29;20052;-84
2022/07/31 07:55:32;;;;;;;8.25;5.32;;;20.80;99.90;;;;;;4853886;29;20136;-83
2022/07/31 07:57:58;;;;;;;8.30;5.70;;;20.80;99.90;;;;;;4861184;29;20132;-84
2022/07/31 08:00:24;;;;;;;9.05;5.75;;;20.90;99.90;;;;;;4845736;29;20045;-82
2022/07/31 08:02:50;;;;;;;9.70;5.78;;;21.00;99.90;;;;;;4858909;29;20386;-84
2022/07/31 08:05:16;;;;;;;7.15;5.00;;;21.10;99.90;;;;;;4846353;29;20049;-84
2022/07/31 08:07:43;;;;;;;8.65;5.35;;;21.20;99.90;;;;;;4860299;29;20570;-84
2022/07/31 08:10:09;;;;;;;9.30;5.18;;;21.20;99.90;;;;;;4861456;29;20097;-84
2022/07/31 08:12:36;;;;;;;8.18;5.22;;;21.20;99.90;;;;;;4845940;29;20053;-84
2022/07/31 08:15:02;;;;;;;9.10;6.00;;;21.20;99.90;;;;;;4859539;29;20054;-85
2022/07/31 08:17:28;;;;;;;7.70;5.25;;;21.10;99.90;;;;;;4860148;29;20075;-83
2022/07/31 08:19:53;;;;;;;8.13;5.68;;;21.10;99.90;;;;;;4862677;29;20554;-84
2022/07/31 08:22:19;;;;;;;9.00;6.28;;;21.10;99.90;;;;;;4845186;29;20089;-84
2022/07/31 08:24:45;;;;;;;10.98;5.85;;;21.10;99.90;;;;;;4844345;29;20045;-85
2022/07/31 08:27:26;;;;;;;7.68;6.10;;;21.10;99.90;;;;;;4859222;29;20590;-86
2022/07/31 08:29:55;;;;;;;7.03;5.75;;;21.10;99.90;;;;;;4861057;29;20045;-86
2022/07/31 08:32:22;;;;;;;9.77;5.88;;;21.00;99.90;;;;;;4857061;29;20076;-87
2022/07/31 08:34:48;;;;;;;8.35;6.13;;;21.00;99.90;;;;;;4831524;29;20049;-84
2022/07/31 08:37:18;;;;;;;8.00;5.78;;;20.90;99.90;;;;;;4850401;29;20177;-84
2022/07/31 08:39:45;;;;;;;8.30;6.20;;;20.90;99.90;;;;;;4845335;29;20442;-88
2022/07/31 08:42:11;;;;;;;11.15;6.53;;;20.90;99.90;;;;;;4855401;29;20060;-85
2022/07/31 08:44:41;;;;;;;8.73;6.10;;;20.90;99.90;;;;;;4858300;29;20037;-83
2022/07/31 08:47:09;;;;;;;8.75;6.30;;;20.90;99.90;;;;;;4853761;29;20046;-83
2022/07/31 08:49:46;;;;;;;10.25;6.32;;;20.80;99.90;;;;;;4855012;29;20106;-84
2022/07/31 08:52:20;;;;;;;10.30;7.00;;;20.80;99.90;;;;;;4854862;29;20057;-84
2022/07/31 08:54:48;;;;;;;8.75;6.93;;;20.80;99.90;;;;;;4837885;29;20054;-83
2022/07/31 08:57:14;;;;;;;9.25;6.20;;;20.70;99.90;;;;;;4852813;29;20159;-83
2022/07/31 08:59:40;;;;;;;8.10;6.75;;;20.70;99.90;;;;;;4825774;29;20505;-85
2022/07/31 09:02:10;;;;;;;10.32;6.55;;;20.70;99.90;;;;;;4848529;29;20109;-84
2022/07/31 09:04:35;;;;;;;9.45;6.88;;;20.70;99.90;;;;;;4846454;29;20387;-84
2022/07/31 09:07:01;;;;;;;8.15;6.55;;;20.70;99.90;;;;;;4868896;29;20057;-83
2022/07/31 09:09:28;;;;;;;9.68;6.70;;;20.60;99.90;;;;;;4859912;29;20050;-83
2022/07/31 09:11:54;;;;;;;8.98;7.05;;;20.60;99.90;;;;;;4837175;29;20105;-83
2022/07/31 09:14:33;;;;;;;8.77;7.38;;;20.60;99.90;;;;;;4857691;29;20052;-83
2022/07/31 09:17:00;;;;;;;10.80;6.97;;;20.60;99.90;;;;;;4848665;29;20056;-83
2022/07/31 09:19:55;;;;;;;10.45;7.35;;;20.50;99.90;;;;;;4839777;29;20128;-85
2022/07/31 09:22:26;;;;;;;9.40;7.32;;;20.50;99.90;;;;;;4813847;29;20076;-83
2022/07/31 09:24:52;;;;;;;12.70;8.60;;;20.50;99.90;;;;;;4852948;29;20399;-83
2022/07/31 09:27:18;;;;;;;10.00;7.53;;;20.50;99.90;;;;;;4855721;29;20045;-83
2022/07/31 09:29:47;;;;;;;11.25;7.88;;;20.50;99.90;;;;;;4849758;29;20033;-82
2022/07/31 09:32:18;;;;;;;11.43;7.82;;;20.50;99.90;;;;;;4855448;29;20167;-83
2022/07/31 09:34:46;;;;;;;10.05;8.95;;;20.50;99.90;;;;;;4855525;29;20041;-84
2022/07/31 09:37:20;;;;;;;9.48;8.20;;;20.50;99.90;;;;;;4837877;29;20049;-84
2022/07/31 09:39:50;;;;;;;10.43;8.05;;;20.60;99.90;;;;;;4855824;29;20065;-84
2022/07/31 09:42:17;;;;;;;11.10;8.45;;;20.50;99.90;;;;;;4857038;29;20060;-84
2022/07/31 09:44:45;;;;;;;12.40;8.40;;;20.60;99.90;;;;;;4853236;29;20048;-83
2022/07/31 09:47:30;;;;;;;12.20;8.80;;;20.60;99.90;;;;;;4846686;29;20046;-84
2022/07/31 09:50:03;;;;;;;9.35;8.25;;;20.60;99.90;;;;;;4861922;29;20078;-83
2022/07/31 09:52:30;;;;;;;10.27;7.78;;;20.60;99.90;;;;;;4859231;29;20048;-86
2022/07/31 09:55:14;;;;;;;11.02;8.82;;;20.70;99.90;;;;;;4861277;29;20050;-83
2022/07/31 09:57:51;;;;;;;10.00;7.68;;;20.70;99.90;;;;;;4847806;29;20498;-84
2022/07/31 10:00:17;;;;;;;8.98;7.50;;;20.70;99.90;;;;;;4876643;29;20600;-86
2022/07/31 10:02:44;;;;;;;10.18;8.02;;;20.70;99.90;;;;;;4858787;29;20054;-84
2022/07/31 10:05:11;;;;;;;12.60;8.05;;;20.70;99.90;;;;;;4847451;29;20089;-84
2022/07/31 10:07:38;;;;;;;10.48;7.40;;;20.70;99.90;;;;;;4855710;29;20046;-84
2022/07/31 10:10:06;;;;;;;9.27;7.22;;;20.70;99.90;;;;;;4855151;29;20049;-84
2022/07/31 10:12:34;;;;;;;9.55;7.15;;;20.70;99.90;;;;;;4848840;29;20045;-83
2022/07/31 10:15:12;;;;;;;7.93;7.13;;;20.70;99.90;;;;;;4847419;29;20092;-84
2022/07/31 10:17:43;;;;;;;10.77;7.35;;;20.70;99.90;;;;;;4856728;29;20049;-85
2022/07/31 10:20:16;;;;;;;9.57;7.55;;;20.70;99.90;;;;;;4849075;29;20050;-85
2022/07/31 10:22:45;;;;;;;7.30;6.60;;;20.70;99.90;;;;;;4857603;29;20041;-87
2022/07/31 10:25:18;;;;;;;10.07;7.15;;;20.60;99.90;;;;;;4859038;29;20102;-85
2022/07/31 10:27:45;;;;;;;9.40;6.78;;;20.60;99.90;;;;;;4854761;29;20042;-85
2022/07/31 10:30:12;;;;;;;8.43;6.70;;;20.50;99.90;;;;;;4845095;29;20518;-84
2022/07/31 10:32:38;;;;;;;9.25;6.85;;;20.50;99.90;;;;;;4852075;29;20102;-84
2022/07/31 10:35:06;;;;;;;7.13;5.90;;;20.50;99.90;;;;;;4844454;29;20522;-86
2022/07/31 10:37:46;;;;;;;8.15;6.22;;;20.50;99.90;;;;;;4851869;29;20050;-85
2022/07/31 10:40:34;;;;;;;6.95;6.25;;;20.60;99.90;;;;;;4875220;29;20084;-86
2022/07/31 10:43:09;;;;;;;8.45;6.55;;;20.60;99.90;;;;;;4843535;29;20073;-86
2022/07/31 10:45:45;;;;;;;9.80;7.43;;;20.60;99.90;;;;;;4860519;29;20095;-86
2022/07/31 10:48:11;;;;;;;8.10;6.72;;;20.60;99.90;;;;;;4860281;29;20116;-85
2022/07/31 10:50:37;;;;;;;9.05;6.75;;;20.60;99.90;;;;;;4860854;29;20038;-85
2022/07/31 10:53:20;;;;;;;8.80;6.75;;;20.60;99.90;;;;;;4836928;29;20090;-85
2022/07/31 10:55:46;;;;;;;9.60;7.43;;;20.60;99.90;;;;;;4854992;29;20049;-84
2022/07/31 10:58:20;;;;;;;8.60;7.68;;;20.50;99.90;;;;;;4868483;29;20256;-83
2022/07/31 11:00:46;;;;;;;12.13;8.18;;;20.60;99.90;;;;;;4848719;29;20085;-83
2022/07/31 11:03:20;;;;;;;12.38;8.95;;;20.50;99.90;;;;;;4848640;29;20484;-83
2022/07/31 11:05:53;;;;;;;10.88;8.57;;;20.60;99.90;;;;;;4841302;29;20077;-83
2022/07/31 11:08:18;;;;;;;11.25;9.25;;;20.50;99.90;;;;;;4843218;29;20042;-84
2022/07/31 11:10:55;;;;;;;13.05;9.48;;;20.50;99.90;;;;;;4831361;29;20057;-85
2022/07/31 11:13:23;;;;;;;12.40;9.80;;;20.40;99.90;;;;;;4849367;29;20125;-84
2022/07/31 11:15:51;;;;;;;13.90;11.77;;;20.40;99.90;;;;;;4860365;29;20101;-84
2022/07/31 11:18:21;;;;;;;15.50;11.82;;;20.40;99.90;;;;;;4860943;29;20046;-83
2022/07/31 11:21:02;;;;;;;15.15;11.15;;;20.40;99.90;;;;;;4861441;29;20042;-84
2022/07/31 11:23:30;;;;;;;13.15;11.68;;;20.30;99.90;;;;;;4843962;29;20049;-85
2022/07/31 11:26:01;;;;;;;15.85;11.75;;;20.30;99.90;;;;;;4845830;29;20042;-84
2022/07/31 11:28:27;;;;;;;16.85;14.25;;;20.30;99.90;;;;;;4857292;29;20064;-81
2022/07/31 11:30:55;;;;;;;18.13;13.77;;;20.20;99.90;;;;;;4858739;29;20402;-81
2022/07/31 11:33:31;;;;;;;17.55;14.88;;;20.20;99.90;;;;;;4861256;29;20083;-81
2022/07/31 11:36:14;;;;;;;17.85;14.63;;;20.20;99.90;;;;;;4847474;29;20046;-81
2022/07/31 11:38:45;;;;;;;18.08;15.20;;;20.10;99.90;;;;;;4877675;29;20142;-83
2022/07/31 11:41:11;;;;;;;19.13;16.83;;;20.10;99.90;;;;;;4880559;29;20197;-82
2022/07/31 11:43:42;;;;;;;17.35;15.32;;;20.10;99.90;;;;;;4880732;29;20158;-83
2022/07/31 11:46:08;;;;;;;19.38;15.20;;;20.10;99.90;;;;;;4857590;29;20038;-86
2022/07/31 11:48:38;;;;;;;22.02;16.48;;;20.10;99.90;;;;;;4848542;29;20357;-84
2022/07/31 11:51:04;;;;;;;22.23;16.45;;;20.20;99.90;;;;;;4875808;29;20371;-84
2022/07/31 11:53:30;;;;;;;22.67;17.80;;;20.30;99.90;;;;;;4842290;29;20057;-84
2022/07/31 11:55:58;;;;;;;19.27;16.10;;;20.30;99.90;;;;;;4857585;29;20045;-83
2022/07/31 11:58:28;;;;;;;25.02;20.00;;;20.40;99.90;;;;;;4845475;29;20045;-83
2022/07/31 12:01:02;;;;;;;27.05;20.88;;;20.40;99.90;;;;;;4845505;29;20073;-83
2022/07/31 12:03:34;;;;;;;26.13;19.45;;;20.50;99.90;;;;;;4858093;29;20058;-83
2022/07/31 12:05:59;;;;;;;22.05;19.73;;;20.50;99.90;;;;;;4855865;29;20364;-83
2022/07/31 12:08:26;;;;;;;25.55;22.02;;;20.50;99.90;;;;;;4855585;29;20052;-82
2022/07/31 12:10:53;;;;;;;21.60;19.38;;;20.50;99.90;;;;;;4844506;29;20049;-82
2022/07/31 12:13:21;;;;;;;26.80;21.75;;;20.40;99.90;;;;;;4855838;29;20042;-82
2022/07/31 12:16:07;;;;;;;23.98;19.95;;;20.40;99.90;;;;;;4837718;29;20053;-82
2022/07/31 12:18:46;;;;;;;24.67;22.00;;;20.40;99.90;;;;;;4856071;29;20412;-82
2022/07/31 12:21:12;;;;;;;25.23;20.70;;;20.30;99.90;;;;;;4856025;29;20036;-84
2022/07/31 12:23:47;;;;;;;21.55;19.23;;;20.20;99.90;;;;;;4862118;29;20105;-82
2022/07/31 12:26:26;;;;;;;25.98;19.92;;;20.20;99.90;;;;;;4850788;29;20041;-83
2022/07/31 12:29:03;;;;;;;20.80;18.63;;;20.20;99.90;;;;;;4851856;29;20077;-85
2022/07/31 12:31:31;;;;;;;22.08;19.52;;;20.20;99.90;;;;;;4874508;29;20045;-86
2022/07/31 12:33:57;;;;;;;21.77;19.27;;;20.20;99.90;;;;;;4853874;29;20038;-85
2022/07/31 12:36:22;;;;;;;23.60;21.10;;;20.20;99.90;;;;;;4851520;29;20049;-85
2022/07/31 12:39:03;;;;;;;22.50;19.42;;;20.20;99.90;;;;;;4858444;29;20061;-83
2022/07/31 12:41:39;;;;;;;25.45;18.67;;;20.20;99.90;;;;;;4842176;29;20052;-83
2022/07/31 12:44:12;;;;;;;22.20;19.50;;;20.20;99.90;;;;;;4854282;29;20108;-87
2022/07/31 12:46:38;;;;;;;20.55;18.35;;;20.20;99.90;;;;;;4858996;29;20402;-88
2022/07/31 12:49:05;;;;;;;21.63;17.67;;;20.20;99.90;;;;;;4854089;29;20038;-87